sensor_id;sensor_type;location;lat;lon;timestamp;pressure;altitude;pressure_sealevel;temperature
13219;BMP180;6674;49.152;11.918;2023-06-26T00:02:15;96084.59;;;21.58
13219;BMP180;6674;49.152;11.918;2023-06-26T00:04:42;96079.56;;;21.62
13219;BMP180;6674;49.152;11.918;2023-06-26T00:07:09;96081.91;;;21.63
13219;BMP180;6674;49.152;11.918;2023-06-26T00:09:36;96079.00;;;21.65
13219;BMP180;6674;49.152;11.918;2023-06-26T00:12:03;96082.41;;;21.65
13219;BMP180;6674;49.152;11.918;2023-06-26T00:14:31;96074.25;;;21.66
13219;BMP180;6674;49.152;11.918;2023-06-26T00:16:57;96082.91;;;21.67
13219;BMP180;6674;49.152;11.918;2023-06-26T00:19:24;96081.09;;;21.67
13219;BMP180;6674;49.152;11.918;2023-06-26T00:21:51;96081.41;;;21.61
13219;BMP180;6674;49.152;11.918;2023-06-26T00:24:17;96075.72;;;21.54
13219;BMP180;6674;49.152;11.918;2023-06-26T00:26:46;96082.09;;;21.48
13219;BMP180;6674;49.152;11.918;2023-06-26T00:29:13;96079.25;;;21.45
13219;BMP180;6674;49.152;11.918;2023-06-26T00:31:41;96088.97;;;21.39
13219;BMP180;6674;49.152;11.918;2023-06-26T00:34:08;96078.75;;;21.38
13219;BMP180;6674;49.152;11.918;2023-06-26T00:36:34;96089.81;;;21.35
13219;BMP180;6674;49.152;11.918;2023-06-26T00:39:01;96080.66;;;21.32
13219;BMP180;6674;49.152;11.918;2023-06-26T00:41:28;96084.59;;;21.30
13219;BMP180;6674;49.152;11.918;2023-06-26T00:43:55;96085.69;;;21.29
13219;BMP180;6674;49.152;11.918;2023-06-26T00:46:22;96086.94;;;21.31
13219;BMP180;6674;49.152;11.918;2023-06-26T00:48:51;96087.47;;;21.33
13219;BMP180;6674;49.152;11.918;2023-06-26T00:51:18;96087.75;;;21.32
13219;BMP180;6674;49.152;11.918;2023-06-26T00:53:45;96084.88;;;21.28
13219;BMP180;6674;49.152;11.918;2023-06-26T00:56:12;96080.78;;;21.22
13219;BMP180;6674;49.152;11.918;2023-06-26T00:58:38;96085.25;;;21.17
13219;BMP180;6674;49.152;11.918;2023-06-26T01:01:05;96079.78;;;21.14
13219;BMP180;6674;49.152;11.918;2023-06-26T01:03:34;96075.13;;;21.11
13219;BMP180;6674;49.152;11.918;2023-06-26T01:06:04;96074.59;;;21.09
13219;BMP180;6674;49.152;11.918;2023-06-26T01:08:30;96073.06;;;21.08
13219;BMP180;6674;49.152;11.918;2023-06-26T01:10:59;96074.03;;;21.12
13219;BMP180;6674;49.152;11.918;2023-06-26T01:13:26;96069.56;;;21.12
13219;BMP180;6674;49.152;11.918;2023-06-26T01:15:55;96071.44;;;21.12
13219;BMP180;6674;49.152;11.918;2023-06-26T01:18:24;96072.50;;;21.11
13219;BMP180;6674;49.152;11.918;2023-06-26T01:20:52;96071.97;;;21.09
13219;BMP180;6674;49.152;11.918;2023-06-26T01:23:24;96073.06;;;21.08
13219;BMP180;6674;49.152;11.918;2023-06-26T01:26:10;96072.25;;;21.07
13219;BMP180;6674;49.152;11.918;2023-06-26T01:28:39;96067.00;;;21.07
13219;BMP180;6674;49.152;11.918;2023-06-26T01:31:07;96071.47;;;21.07
13219;BMP180;6674;49.152;11.918;2023-06-26T01:33:34;96066.22;;;21.07
13219;BMP180;6674;49.152;11.918;2023-06-26T01:36:02;96060.50;;;21.05
13219;BMP180;6674;49.152;11.918;2023-06-26T01:38:29;96067.06;;;21.02
13219;BMP180;6674;49.152;11.918;2023-06-26T01:40:55;96067.91;;;20.98
13219;BMP180;6674;49.152;11.918;2023-06-26T01:43:28;96064.03;;;20.90
13219;BMP180;6674;49.152;11.918;2023-06-26T01:45:58;96060.47;;;20.81
13219;BMP180;6674;49.152;11.918;2023-06-26T01:48:31;96062.88;;;20.73
13219;BMP180;6674;49.152;11.918;2023-06-26T01:50:59;96060.31;;;20.63
13219;BMP180;6674;49.152;11.918;2023-06-26T01:53:32;96057.22;;;20.56
13219;BMP180;6674;49.152;11.918;2023-06-26T01:56:05;96065.63;;;20.53
13219;BMP180;6674;49.152;11.918;2023-06-26T01:58:35;96058.59;;;20.49
13219;BMP180;6674;49.152;11.918;2023-06-26T02:01:04;96056.25;;;20.47
13219;BMP180;6674;49.152;11.918;2023-06-26T02:03:30;96053.66;;;20.42
13219;BMP180;6674;49.152;11.918;2023-06-26T02:05:57;96055.22;;;20.43
13219;BMP180;6674;49.152;11.918;2023-06-26T02:08:24;96059.97;;;20.41
13219;BMP180;6674;49.152;11.918;2023-06-26T02:10:50;96058.91;;;20.42
13219;BMP180;6674;49.152;11.918;2023-06-26T02:13:17;96062.59;;;20.41
13219;BMP180;6674;49.152;11.918;2023-06-26T02:15:45;96067.31;;;20.39
13219;BMP180;6674;49.152;11.918;2023-06-26T02:18:12;96068.91;;;20.35
13219;BMP180;6674;49.152;11.918;2023-06-26T02:20:38;96059.78;;;20.33
13219;BMP180;6674;49.152;11.918;2023-06-26T02:23:05;96060.53;;;20.33
13219;BMP180;6674;49.152;11.918;2023-06-26T02:25:32;96066.78;;;20.37
13219;BMP180;6674;49.152;11.918;2023-06-26T02:27:59;96061.00;;;20.40
13219;BMP180;6674;49.152;11.918;2023-06-26T02:30:25;96058.91;;;20.42
13219;BMP180;6674;49.152;11.918;2023-06-26T02:32:53;96054.47;;;20.43
13219;BMP180;6674;49.152;11.918;2023-06-26T02:35:20;96061.81;;;20.41
13219;BMP180;6674;49.152;11.918;2023-06-26T02:37:46;96062.09;;;20.39
13219;BMP180;6674;49.152;11.918;2023-06-26T02:40:13;96063.13;;;20.38
13219;BMP180;6674;49.152;11.918;2023-06-26T02:42:40;96063.13;;;20.38
13219;BMP180;6674;49.152;11.918;2023-06-26T02:45:08;96066.28;;;20.35
13219;BMP180;6674;49.152;11.918;2023-06-26T02:47:35;96060.53;;;20.33
13219;BMP180;6674;49.152;11.918;2023-06-26T02:50:06;96061.34;;;20.29
13219;BMP180;6674;49.152;11.918;2023-06-26T02:52:33;96066.09;;;20.27
13219;BMP180;6674;49.152;11.918;2023-06-26T02:55:00;96065.59;;;20.25
13219;BMP180;6674;49.152;11.918;2023-06-26T02:57:26;96063.47;;;20.27
13219;BMP180;6674;49.152;11.918;2023-06-26T02:59:53;96072.91;;;20.28
13219;BMP180;6674;49.152;11.918;2023-06-26T03:02:19;96061.13;;;20.26
13219;BMP180;6674;49.152;11.918;2023-06-26T03:04:46;96060.63;;;20.24
13219;BMP180;6674;49.152;11.918;2023-06-26T03:07:14;96058.28;;;20.22
13219;BMP180;6674;49.152;11.918;2023-06-26T03:09:41;96058.00;;;20.24
13219;BMP180;6674;49.152;11.918;2023-06-26T03:12:08;96055.91;;;20.21
13219;BMP180;6674;49.152;11.918;2023-06-26T03:14:35;96063.28;;;20.19
13219;BMP180;6674;49.152;11.918;2023-06-26T03:17:02;96056.47;;;20.18
13219;BMP180;6674;49.152;11.918;2023-06-26T03:19:29;96059.63;;;20.15
13219;BMP180;6674;49.152;11.918;2023-06-26T03:21:55;96068.81;;;20.12
13219;BMP180;6674;49.152;11.918;2023-06-26T03:24:23;96068.56;;;20.09
13219;BMP180;6674;49.152;11.918;2023-06-26T03:26:50;96070.69;;;20.07
13219;BMP180;6674;49.152;11.918;2023-06-26T03:29:17;96072.50;;;20.06
13219;BMP180;6674;49.152;11.918;2023-06-26T03:31:43;96059.72;;;20.00
13219;BMP180;6674;49.152;11.918;2023-06-26T03:34:10;96065.47;;;19.97
13219;BMP180;6674;49.152;11.918;2023-06-26T03:36:37;96073.63;;;19.95
13219;BMP180;6674;49.152;11.918;2023-06-26T03:39:03;96058.69;;;19.96
13219;BMP180;6674;49.152;11.918;2023-06-26T03:41:31;96059.75;;;19.95
13219;BMP180;6674;49.152;11.918;2023-06-26T03:43:58;96060.00;;;19.93
13219;BMP180;6674;49.152;11.918;2023-06-26T03:46:26;96062.66;;;19.89
13219;BMP180;6674;49.152;11.918;2023-06-26T03:48:52;96069.22;;;19.86
13219;BMP180;6674;49.152;11.918;2023-06-26T03:51:19;96060.31;;;19.82
13219;BMP180;6674;49.152;11.918;2023-06-26T03:53:46;96064.03;;;19.76
13219;BMP180;6674;49.152;11.918;2023-06-26T03:56:12;96058.53;;;19.73
13219;BMP180;6674;49.152;11.918;2023-06-26T03:58:40;96061.16;;;19.68
13219;BMP180;6674;49.152;11.918;2023-06-26T04:01:07;96067.19;;;19.68
13219;BMP180;6674;49.152;11.918;2023-06-26T04:03:33;96069.81;;;19.68
13219;BMP180;6674;49.152;11.918;2023-06-26T04:06:00;96072.44;;;19.68
13219;BMP180;6674;49.152;11.918;2023-06-26T04:08:27;96068.47;;;19.71
13219;BMP180;6674;49.152;11.918;2023-06-26T04:10:53;96075.03;;;19.68
13219;BMP180;6674;49.152;11.918;2023-06-26T04:13:22;96057.50;;;19.69
13219;BMP180;6674;49.152;11.918;2023-06-26T04:15:50;96067.19;;;19.68
13219;BMP180;6674;49.152;11.918;2023-06-26T04:18:17;96053.59;;;19.66
13219;BMP180;6674;49.152;11.918;2023-06-26T04:21:03;96058.88;;;19.61
13219;BMP180;6674;49.152;11.918;2023-06-26T04:23:30;96058.31;;;19.59
13219;BMP180;6674;49.152;11.918;2023-06-26T04:25:57;96063.56;;;19.54
13219;BMP180;6674;49.152;11.918;2023-06-26T04:28:24;96073.28;;;19.54
13219;BMP180;6674;49.152;11.918;2023-06-26T04:30:52;96066.47;;;19.48
13219;BMP180;6674;49.152;11.918;2023-06-26T04:33:19;96072.25;;;19.45
13219;BMP180;6674;49.152;11.918;2023-06-26T04:35:46;96079.34;;;19.40
13219;BMP180;6674;49.152;11.918;2023-06-26T04:38:14;96075.94;;;19.44
13219;BMP180;6674;49.152;11.918;2023-06-26T04:40:41;96074.59;;;19.46
13219;BMP180;6674;49.152;11.918;2023-06-26T04:43:08;96068.84;;;19.49
13219;BMP180;6674;49.152;11.918;2023-06-26T04:45:34;96078.75;;;19.52
13219;BMP180;6674;49.152;11.918;2023-06-26T04:48:03;96073.00;;;19.55
13219;BMP180;6674;49.152;11.918;2023-06-26T04:50:31;96064.59;;;19.63
13219;BMP180;6674;49.152;11.918;2023-06-26T04:52:58;96057.75;;;19.67
13219;BMP180;6674;49.152;11.918;2023-06-26T04:55:26;96062.19;;;19.72
13219;BMP180;6674;49.152;11.918;2023-06-26T04:57:53;96069.00;;;19.73
13219;BMP180;6674;49.152;11.918;2023-06-26T05:00:20;96061.91;;;19.78
13219;BMP180;6674;49.152;11.918;2023-06-26T05:02:47;96065.03;;;19.80
13219;BMP180;6674;49.152;11.918;2023-06-26T05:05:15;96066.63;;;19.86
13219;BMP180;6674;49.152;11.918;2023-06-26T05:07:42;96068.94;;;19.92
13219;BMP180;6674;49.152;11.918;2023-06-26T05:10:09;96067.59;;;19.95
13219;BMP180;6674;49.152;11.918;2023-06-26T05:12:36;96059.47;;;19.96
13219;BMP180;6674;49.152;11.918;2023-06-26T05:15:03;96062.59;;;19.98
13219;BMP180;6674;49.152;11.918;2023-06-26T05:17:30;96059.94;;;20.03
13219;BMP180;6674;49.152;11.918;2023-06-26T05:19:56;96065.97;;;20.09
13219;BMP180;6674;49.152;11.918;2023-06-26T05:22:25;96060.22;;;20.07
13219;BMP180;6674;49.152;11.918;2023-06-26T05:24:54;96059.13;;;20.13
13219;BMP180;6674;49.152;11.918;2023-06-26T05:27:21;96052.03;;;20.18
13219;BMP180;6674;49.152;11.918;2023-06-26T05:29:49;96055.66;;;20.22
13219;BMP180;6674;49.152;11.918;2023-06-26T05:32:17;96050.13;;;20.24
13219;BMP180;6674;49.152;11.918;2023-06-26T05:34:45;96052.22;;;20.27
13219;BMP180;6674;49.152;11.918;2023-06-26T05:37:14;96052.50;;;20.25
13219;BMP180;6674;49.152;11.918;2023-06-26T05:39:47;96060.09;;;20.27
13219;BMP180;6674;49.152;11.918;2023-06-26T05:42:15;96052.72;;;20.29
13219;BMP180;6674;49.152;11.918;2023-06-26T05:44:42;96054.25;;;20.34
13219;BMP180;6674;49.152;11.918;2023-06-26T05:47:08;96055.50;;;20.42
13219;BMP180;6674;49.152;11.918;2023-06-26T05:49:35;96053.66;;;20.42
13219;BMP180;6674;49.152;11.918;2023-06-26T05:52:02;96052.03;;;20.51
13219;BMP180;6674;49.152;11.918;2023-06-26T05:54:29;96062.47;;;20.56
13219;BMP180;6674;49.152;11.918;2023-06-26T05:56:58;96064.81;;;20.58
13219;BMP180;6674;49.152;11.918;2023-06-26T05:59:25;96053.53;;;20.62
13219;BMP180;6674;49.152;11.918;2023-06-26T06:01:52;96051.34;;;20.74
13219;BMP180;6674;49.152;11.918;2023-06-26T06:04:19;96053.47;;;20.72
13219;BMP180;6674;49.152;11.918;2023-06-26T06:06:46;96045.44;;;20.87
13219;BMP180;6674;49.152;11.918;2023-06-26T06:09:13;96047.75;;;20.93
13219;BMP180;6674;49.152;11.918;2023-06-26T06:11:40;96053.72;;;20.99
13219;BMP180;6674;49.152;11.918;2023-06-26T06:14:08;96061.50;;;21.09
13219;BMP180;6674;49.152;11.918;2023-06-26T06:16:35;96066.34;;;21.20
13219;BMP180;6674;49.152;11.918;2023-06-26T06:19:01;96058.44;;;21.25
13219;BMP180;6674;49.152;11.918;2023-06-26T06:21:28;96058.03;;;21.36
13219;BMP180;6674;49.152;11.918;2023-06-26T06:23:55;96054.28;;;21.47
13219;BMP180;6674;49.152;11.918;2023-06-26T06:26:21;96058.91;;;21.55
13219;BMP180;6674;49.152;11.918;2023-06-26T06:28:48;96048.78;;;21.67
13219;BMP180;6674;49.152;11.918;2023-06-26T06:31:16;96054.41;;;21.79
13219;BMP180;6674;49.152;11.918;2023-06-26T06:33:42;96050.38;;;21.86
13219;BMP180;6674;49.152;11.918;2023-06-26T06:36:09;96049.19;;;21.97
13219;BMP180;6674;49.152;11.918;2023-06-26T06:38:36;96045.03;;;22.09
13219;BMP180;6674;49.152;11.918;2023-06-26T06:41:02;96050.75;;;22.16
13219;BMP180;6674;49.152;11.918;2023-06-26T06:43:29;96046.91;;;22.27
13219;BMP180;6674;49.152;11.918;2023-06-26T06:45:55;96050.38;;;22.41
13219;BMP180;6674;49.152;11.918;2023-06-26T06:48:23;96045.25;;;22.50
13219;BMP180;6674;49.152;11.918;2023-06-26T06:50:50;96055.41;;;22.56
13219;BMP180;6674;49.152;11.918;2023-06-26T06:53:18;96056.25;;;22.70
13219;BMP180;6674;49.152;11.918;2023-06-26T06:55:45;96056.06;;;22.80
13219;BMP180;6674;49.152;11.918;2023-06-26T06:58:12;96053.78;;;22.92
13219;BMP180;6674;49.152;11.918;2023-06-26T07:00:39;96047.78;;;23.04
13219;BMP180;6674;49.152;11.918;2023-06-26T07:03:05;96051.69;;;23.20
13219;BMP180;6674;49.152;11.918;2023-06-26T07:05:33;96048.28;;;23.33
13219;BMP180;6674;49.152;11.918;2023-06-26T07:08:00;96038.63;;;23.42
13219;BMP180;6674;49.152;11.918;2023-06-26T07:10:26;96039.22;;;23.52
13219;BMP180;6674;49.152;11.918;2023-06-26T07:12:53;96034.34;;;23.59
13219;BMP180;6674;49.152;11.918;2023-06-26T07:15:20;96041.78;;;23.71
13219;BMP180;6674;49.152;11.918;2023-06-26T07:17:46;96031.78;;;23.81
13219;BMP180;6674;49.152;11.918;2023-06-26T07:20:13;96037.44;;;23.88
13219;BMP180;6674;49.152;11.918;2023-06-26T07:22:43;96030.59;;;24.00
13219;BMP180;6674;49.152;11.918;2023-06-26T07:25:11;96036.91;;;24.13
13219;BMP180;6674;49.152;11.918;2023-06-26T07:27:38;96036.97;;;24.21
13219;BMP180;6674;49.152;11.918;2023-06-26T07:30:05;96040.34;;;24.35
13219;BMP180;6674;49.152;11.918;2023-06-26T07:32:34;96034.25;;;24.48
13219;BMP180;6674;49.152;11.918;2023-06-26T07:35:00;96048.16;;;24.62
13219;BMP180;6674;49.152;11.918;2023-06-26T07:37:27;96037.19;;;24.68
13219;BMP180;6674;49.152;11.918;2023-06-26T07:39:55;96036.50;;;24.84
13219;BMP180;6674;49.152;11.918;2023-06-26T07:42:21;96035.09;;;25.00
13219;BMP180;6674;49.152;11.918;2023-06-26T07:44:48;96026.72;;;25.07
13219;BMP180;6674;49.152;11.918;2023-06-26T07:47:15;96035.16;;;25.17
13219;BMP180;6674;49.152;11.918;2023-06-26T07:49:41;96032.84;;;25.24
13219;BMP180;6674;49.152;11.918;2023-06-26T07:52:08;96030.72;;;25.34
13219;BMP180;6674;49.152;11.918;2023-06-26T07:54:36;96022.66;;;25.39
13219;BMP180;6674;49.152;11.918;2023-06-26T07:57:05;96027.00;;;25.44
13219;BMP180;6674;49.152;11.918;2023-06-26T07:59:32;96021.69;;;25.65
13219;BMP180;6674;49.152;11.918;2023-06-26T08:01:59;96021.25;;;25.80
13219;BMP180;6674;49.152;11.918;2023-06-26T08:04:27;96029.03;;;25.94
13219;BMP180;6674;49.152;11.918;2023-06-26T08:06:56;96027.19;;;26.03
13219;BMP180;6674;49.152;11.918;2023-06-26T08:09:26;96031.19;;;25.83
13219;BMP180;6674;49.152;11.918;2023-06-26T08:11:53;96019.56;;;26.09
13219;BMP180;6674;49.152;11.918;2023-06-26T08:14:21;96019.59;;;26.26
13219;BMP180;6674;49.152;11.918;2023-06-26T08:16:49;96019.13;;;26.33
13219;BMP180;6674;49.152;11.918;2023-06-26T08:19:16;96009.47;;;26.45
13219;BMP180;6674;49.152;11.918;2023-06-26T08:21:43;96016.78;;;26.56
13219;BMP180;6674;49.152;11.918;2023-06-26T08:24:10;96005.72;;;26.63
13219;BMP180;6674;49.152;11.918;2023-06-26T08:26:38;96007.41;;;26.76
13219;BMP180;6674;49.152;11.918;2023-06-26T08:29:05;96003.03;;;26.88
13219;BMP180;6674;49.152;11.918;2023-06-26T08:31:35;96008.16;;;27.01
13219;BMP180;6674;49.152;11.918;2023-06-26T08:34:02;96005.28;;;27.15
13219;BMP180;6674;49.152;11.918;2023-06-26T08:36:28;96000.22;;;27.30
13219;BMP180;6674;49.152;11.918;2023-06-26T08:38:55;95995.69;;;27.39
13219;BMP180;6674;49.152;11.918;2023-06-26T08:41:22;95999.66;;;27.62
13219;BMP180;6674;49.152;11.918;2023-06-26T08:43:48;95995.13;;;27.62
13219;BMP180;6674;49.152;11.918;2023-06-26T08:46:16;95991.19;;;27.68
13219;BMP180;6674;49.152;11.918;2023-06-26T08:48:49;95994.84;;;27.84
13219;BMP180;6674;49.152;11.918;2023-06-26T08:51:21;95989.59;;;27.96
13219;BMP180;6674;49.152;11.918;2023-06-26T08:53:55;95988.16;;;28.07
13219;BMP180;6674;49.152;11.918;2023-06-26T08:56:24;95984.22;;;28.04
13219;BMP180;6674;49.152;11.918;2023-06-26T08:58:51;95978.78;;;28.01
13219;BMP180;6674;49.152;11.918;2023-06-26T09:01:17;95982.69;;;28.24
13219;BMP180;6674;49.152;11.918;2023-06-26T09:03:45;95983.84;;;28.14
13219;BMP180;6674;49.152;11.918;2023-06-26T09:06:12;95977.66;;;28.10
13219;BMP180;6674;49.152;11.918;2023-06-26T09:08:39;95990.94;;;28.02
13219;BMP180;6674;49.152;11.918;2023-06-26T09:11:05;95976.72;;;27.86
13219;BMP180;6674;49.152;11.918;2023-06-26T09:13:32;95971.59;;;28.01
13219;BMP180;6674;49.152;11.918;2023-06-26T09:15:59;95975.78;;;28.11
13219;BMP180;6674;49.152;11.918;2023-06-26T09:18:25;95964.09;;;28.12
13219;BMP180;6674;49.152;11.918;2023-06-26T09:20:54;95963.69;;;28.22
13219;BMP180;6674;49.152;11.918;2023-06-26T09:23:21;95969.13;;;28.25
13219;BMP180;6674;49.152;11.918;2023-06-26T09:25:48;95960.19;;;28.29
13219;BMP180;6674;49.152;11.918;2023-06-26T09:28:15;95959.50;;;28.32
13219;BMP180;6674;49.152;11.918;2023-06-26T09:30:42;95955.13;;;28.36
13219;BMP180;6674;49.152;11.918;2023-06-26T09:33:16;95963.09;;;28.48
13219;BMP180;6674;49.152;11.918;2023-06-26T09:35:43;95957.50;;;28.62
13219;BMP180;6674;49.152;11.918;2023-06-26T09:38:11;95964.69;;;28.61
13219;BMP180;6674;49.152;11.918;2023-06-26T09:40:38;95959.66;;;28.68
13219;BMP180;6674;49.152;11.918;2023-06-26T09:43:06;95972.81;;;28.65
13219;BMP180;6674;49.152;11.918;2023-06-26T09:45:32;95962.13;;;28.85
13219;BMP180;6674;49.152;11.918;2023-06-26T09:48:00;95961.50;;;29.00
13219;BMP180;6674;49.152;11.918;2023-06-26T09:50:28;95957.28;;;28.99
13219;BMP180;6674;49.152;11.918;2023-06-26T09:52:57;95956.00;;;29.28
13219;BMP180;6674;49.152;11.918;2023-06-26T09:55:26;95943.38;;;29.37
13219;BMP180;6674;49.152;11.918;2023-06-26T09:57:56;95945.25;;;29.25
13219;BMP180;6674;49.152;11.918;2023-06-26T10:00:23;95952.03;;;29.22
13219;BMP180;6674;49.152;11.918;2023-06-26T10:02:49;95946.69;;;29.46
13219;BMP180;6674;49.152;11.918;2023-06-26T10:05:16;95942.50;;;29.45
13219;BMP180;6674;49.152;11.918;2023-06-26T10:07:43;95949.44;;;29.61
13219;BMP180;6674;49.152;11.918;2023-06-26T10:10:10;95953.53;;;29.71
13219;BMP180;6674;49.152;11.918;2023-06-26T10:12:39;95943.47;;;29.76
13219;BMP180;6674;49.152;11.918;2023-06-26T10:15:06;95936.69;;;29.91
13219;BMP180;6674;49.152;11.918;2023-06-26T10:17:38;95928.56;;;29.99
13219;BMP180;6674;49.152;11.918;2023-06-26T10:20:08;95933.59;;;29.89
13219;BMP180;6674;49.152;11.918;2023-06-26T10:22:38;95930.53;;;30.02
13219;BMP180;6674;49.152;11.918;2023-06-26T10:25:06;95935.06;;;30.13
13219;BMP180;6674;49.152;11.918;2023-06-26T10:27:37;95931.31;;;30.02
13219;BMP180;6674;49.152;11.918;2023-06-26T10:30:11;95926.16;;;30.21
13219;BMP180;6674;49.152;11.918;2023-06-26T10:32:39;95924.53;;;30.44
13219;BMP180;6674;49.152;11.918;2023-06-26T10:35:06;95919.69;;;30.22
13219;BMP180;6674;49.152;11.918;2023-06-26T10:37:43;95918.88;;;30.61
13219;BMP180;6674;49.152;11.918;2023-06-26T10:40:10;95911.38;;;30.36
13219;BMP180;6674;49.152;11.918;2023-06-26T10:42:38;95919.59;;;30.31
13219;BMP180;6674;49.152;11.918;2023-06-26T10:45:16;95908.72;;;30.51
13219;BMP180;6674;49.152;11.918;2023-06-26T10:47:46;95918.69;;;30.27
13219;BMP180;6674;49.152;11.918;2023-06-26T10:50:24;95922.56;;;30.29
13219;BMP180;6674;49.152;11.918;2023-06-26T10:53:07;95908.59;;;30.75
13219;BMP180;6674;49.152;11.918;2023-06-26T10:55:34;95912.66;;;30.84
13219;BMP180;6674;49.152;11.918;2023-06-26T10:58:01;95901.38;;;30.60
13219;BMP180;6674;49.152;11.918;2023-06-26T11:00:29;95903.25;;;30.59
13219;BMP180;6674;49.152;11.918;2023-06-26T11:02:56;95902.31;;;30.52
13219;BMP180;6674;49.152;11.918;2023-06-26T11:05:25;95910.97;;;30.49
13219;BMP180;6674;49.152;11.918;2023-06-26T11:08:06;95900.78;;;30.82
13219;BMP180;6674;49.152;11.918;2023-06-26T11:10:48;95898.09;;;30.82
13219;BMP180;6674;49.152;11.918;2023-06-26T11:13:16;95899.03;;;30.58
13219;BMP180;6674;49.152;11.918;2023-06-26T11:15:44;95889.47;;;30.85
13219;BMP180;6674;49.152;11.918;2023-06-26T11:18:12;95890.88;;;30.82
13219;BMP180;6674;49.152;11.918;2023-06-26T11:20:39;95889.22;;;30.90
13219;BMP180;6674;49.152;11.918;2023-06-26T11:23:07;95875.41;;;31.18
13219;BMP180;6674;49.152;11.918;2023-06-26T11:25:34;95880.03;;;31.21
13219;BMP180;6674;49.152;11.918;2023-06-26T11:28:02;95885.72;;;31.35
13219;BMP180;6674;49.152;11.918;2023-06-26T11:30:29;95879.47;;;31.62
13219;BMP180;6674;49.152;11.918;2023-06-26T11:33:04;95879.78;;;31.26
13219;BMP180;6674;49.152;11.918;2023-06-26T11:35:30;95878.78;;;31.15
13219;BMP180;6674;49.152;11.918;2023-06-26T11:37:57;95872.09;;;31.06
13219;BMP180;6674;49.152;11.918;2023-06-26T11:40:26;95878.53;;;31.05
13219;BMP180;6674;49.152;11.918;2023-06-26T11:42:55;95869.16;;;31.11
13219;BMP180;6674;49.152;11.918;2023-06-26T11:45:23;95865.53;;;31.19
13219;BMP180;6674;49.152;11.918;2023-06-26T11:47:50;95872.59;;;31.27
13219;BMP180;6674;49.152;11.918;2023-06-26T11:50:18;95872.31;;;31.16
13219;BMP180;6674;49.152;11.918;2023-06-26T11:52:45;95875.75;;;31.32
13219;BMP180;6674;49.152;11.918;2023-06-26T11:55:11;95869.34;;;31.52
13219;BMP180;6674;49.152;11.918;2023-06-26T11:57:38;95878.94;;;31.37
13219;BMP180;6674;49.152;11.918;2023-06-26T12:00:11;95868.59;;;31.51
13219;BMP180;6674;49.152;11.918;2023-06-26T12:02:38;95867.34;;;31.64
13219;BMP180;6674;49.152;11.918;2023-06-26T12:05:06;95871.78;;;31.76
13219;BMP180;6674;49.152;11.918;2023-06-26T12:07:35;95864.94;;;31.59
13219;BMP180;6674;49.152;11.918;2023-06-26T12:10:03;95860.16;;;31.49
13219;BMP180;6674;49.152;11.918;2023-06-26T12:12:32;95857.75;;;31.97
13219;BMP180;6674;49.152;11.918;2023-06-26T12:14:59;95868.25;;;31.72
13219;BMP180;6674;49.152;11.918;2023-06-26T12:17:26;95864.00;;;31.52
13219;BMP180;6674;49.152;11.918;2023-06-26T12:19:53;95867.69;;;31.63
13219;BMP180;6674;49.152;11.918;2023-06-26T12:22:19;95865.56;;;31.53
13219;BMP180;6674;49.152;11.918;2023-06-26T12:24:48;95859.28;;;31.61
13219;BMP180;6674;49.152;11.918;2023-06-26T12:27:15;95846.66;;;31.95
13219;BMP180;6674;49.152;11.918;2023-06-26T12:29:49;95850.22;;;31.84
13219;BMP180;6674;49.152;11.918;2023-06-26T12:32:16;95849.16;;;32.07
13219;BMP180;6674;49.152;11.918;2023-06-26T12:34:46;95855.22;;;32.04
13219;BMP180;6674;49.152;11.918;2023-06-26T12:37:14;95852.88;;;32.22
13219;BMP180;6674;49.152;11.918;2023-06-26T12:39:49;95853.41;;;31.89
13219;BMP180;6674;49.152;11.918;2023-06-26T12:42:18;95846.72;;;31.99
13219;BMP180;6674;49.152;11.918;2023-06-26T12:44:45;95838.63;;;31.77
13219;BMP180;6674;49.152;11.918;2023-06-26T12:47:13;95844.97;;;32.06
13219;BMP180;6674;49.152;11.918;2023-06-26T12:49:42;95836.03;;;31.61
13219;BMP180;6674;49.152;11.918;2023-06-26T12:52:10;95841.31;;;31.95
13219;BMP180;6674;49.152;11.918;2023-06-26T12:54:39;95841.44;;;31.46
13219;BMP180;6674;49.152;11.918;2023-06-26T12:57:07;95841.59;;;31.37
13219;BMP180;6674;49.152;11.918;2023-06-26T12:59:35;95834.19;;;31.46
13219;BMP180;6674;49.152;11.918;2023-06-26T13:02:02;95844.09;;;31.65
13219;BMP180;6674;49.152;11.918;2023-06-26T13:04:29;95841.38;;;31.61
13219;BMP180;6674;49.152;11.918;2023-06-26T13:06:56;95834.34;;;31.53
13219;BMP180;6674;49.152;11.918;2023-06-26T13:09:23;95845.13;;;31.26
13219;BMP180;6674;49.152;11.918;2023-06-26T13:11:50;95834.59;;;30.84
13219;BMP180;6674;49.152;11.918;2023-06-26T13:14:18;95831.03;;;31.26
13219;BMP180;6674;49.152;11.918;2023-06-26T13:16:45;95827.06;;;31.69
13219;BMP180;6674;49.152;11.918;2023-06-26T13:19:11;95826.28;;;31.87
13219;BMP180;6674;49.152;11.918;2023-06-26T13:21:38;95818.13;;;31.80
13219;BMP180;6674;49.152;11.918;2023-06-26T13:24:05;95828.13;;;31.83
13219;BMP180;6674;49.152;11.918;2023-06-26T13:26:32;95817.78;;;32.01
13219;BMP180;6674;49.152;11.918;2023-06-26T13:28:59;95823.63;;;32.06
13219;BMP180;6674;49.152;11.918;2023-06-26T13:31:27;95829.78;;;31.73
13219;BMP180;6674;49.152;11.918;2023-06-26T13:33:57;95811.63;;;31.59
13219;BMP180;6674;49.152;11.918;2023-06-26T13:36:23;95805.78;;;31.73
13219;BMP180;6674;49.152;11.918;2023-06-26T13:38:50;95808.72;;;32.05
13219;BMP180;6674;49.152;11.918;2023-06-26T13:41:21;95810.41;;;32.13
13219;BMP180;6674;49.152;11.918;2023-06-26T13:43:47;95809.16;;;31.88
13219;BMP180;6674;49.152;11.918;2023-06-26T13:46:15;95813.50;;;31.77
13219;BMP180;6674;49.152;11.918;2023-06-26T13:48:43;95819.69;;;31.63
13219;BMP180;6674;49.152;11.918;2023-06-26T13:51:10;95804.03;;;31.99
13219;BMP180;6674;49.152;11.918;2023-06-26T13:53:36;95811.81;;;31.70
13219;BMP180;6674;49.152;11.918;2023-06-26T13:56:03;95808.28;;;31.84
13219;BMP180;6674;49.152;11.918;2023-06-26T13:58:30;95814.78;;;32.02
13219;BMP180;6674;49.152;11.918;2023-06-26T14:00:58;95814.97;;;32.13
13219;BMP180;6674;49.152;11.918;2023-06-26T14:03:26;95809.28;;;32.36
13219;BMP180;6674;49.152;11.918;2023-06-26T14:05:54;95796.25;;;31.90
13219;BMP180;6674;49.152;11.918;2023-06-26T14:08:20;95803.16;;;31.91
13219;BMP180;6674;49.152;11.918;2023-06-26T14:10:47;95798.91;;;32.09
13219;BMP180;6674;49.152;11.918;2023-06-26T14:13:13;95810.53;;;32.20